Terminal Aerodrome Forecast
Issued by NWS

Current Version | Previous Version | Text Only | Print | Product List | Glossary On
Versions: 1 2 3 4 5 6 7 8 9 10 11 12 13 14 15 16 17 18 19 20 21 22 23 24 25 26
000
FTUS44 KHGX 262321
TAFCXO
TAF
KCXO 262321Z 2700/2724 VRB05KT P6SM SKC
     FM270500 02006KT P6SM SKC
     FM271700 06006KT P6SM SKC
     FM272300 09006KT P6SM SKC=

USA.gov is the U.S. government's official web portal to all federal, state and local government web resources and services.